Time;durP1;ratioP1;P1;durP2;ratioP2;P2;SDS_P1;SDS_P2;PMS_P1;PMS_P2;Temp;Humidity;BMP_temperature;BMP_pressure;BME280_temperature;BME280_humidity;BME280_pressure;Samples;Min_cycle;Max_cycle;Signal;HPM_P1;HPM_P2
2021/01/15 00:00:27;;;;;;;7.47;5;;;3.8;99.9;;;;;;;;;
2021/01/15 00:01:02;;;;;;;7.47;5;;;3.8;99.9;;;;;;;;;
2021/01/15 00:02:02;;;;;;;6.9;5.6;;;3.8;99.9;;;;;;;;;
2021/01/15 00:02:41;;;;;;;6.1;5.27;;;3.8;99.9;;;;;;;;;
2021/01/15 00:03:02;;;;;;;6.1;5.27;;;3.8;99.9;;;;;;;;;
2021/01/15 00:03:16;;;;;;;6.1;5.27;;;3.8;99.9;;;;;;;;;
2021/01/15 00:04:02;;;;;;;6.7;5.73;;;3.8;99.9;;;;;;;;;
2021/01/15 00:04:13;;;;;;;6.7;5.73;;;3.8;99.9;;;;;;;;;
2021/01/15 00:04:54;;;;;;;7.7;5.33;;;3.8;99.9;;;;;;;;;
2021/01/15 00:05:02;;;;;;;7.7;5.33;;;3.8;99.9;;;;;;;;;
2021/01/15 00:05:14;;;;;;;7.7;5.33;;;3.8;99.9;;;;;;;;;
2021/01/15 00:05:30;;;;;;;7.57;5.33;;;3.8;99.9;;;;;;;;;
2021/01/15 00:06:05;;;;;;;7.57;5.33;;;3.8;99.9;;;;;;;;;
2021/01/15 00:06:16;;;;;;;7.57;5.33;;;3.8;99.9;;;;;;;;;
2021/01/15 00:06:26;;;;;;;6.93;5.2;;;3.8;99.9;;;;;;;;;
2021/01/15 00:07:02;;;;;;;6.93;5.2;;;3.8;99.9;;;;;;;;;
2021/01/15 00:07:07;;;;;;;6.93;5.2;;;3.8;99.9;;;;;;;;;
2021/01/15 00:07:17;;;;;;;6.93;5.2;;;3.8;99.9;;;;;;;;;
2021/01/15 00:07:27;;;;;;;6.47;4.8;;;3.8;99.9;;;;;;;;;
2021/01/15 00:07:43;;;;;;;6.47;4.8;;;3.8;99.9;;;;;;;;;
2021/01/15 00:08:02;;;;;;;6.47;4.8;;;3.8;99.9;;;;;;;;;
2021/01/15 00:08:19;;;;;;;6.47;4.8;;;3.8;99.9;;;;;;;;;
2021/01/15 00:08:29;;;;;;;7.17;5.1;;;3.8;99.9;;;;;;;;;
2021/01/15 00:08:39;;;;;;;7.17;5.1;;;3.8;99.9;;;;;;;;;
2021/01/15 00:09:03;;;;;;;7.17;5.1;;;3.8;99.9;;;;;;;;;
2021/01/15 00:09:15;;;;;;;7.17;5.1;;;3.8;99.9;;;;;;;;;
2021/01/15 00:09:30;;;;;;;9.37;5.57;;;3.8;99.9;;;;;;;;;
2021/01/15 00:09:40;;;;;;;9.37;5.57;;;3.8;99.9;;;;;;;;;
2021/01/15 00:09:56;;;;;;;9.37;5.57;;;3.8;99.9;;;;;;;;;
2021/01/15 00:10:01;;;;;;;9.37;5.57;;;3.8;99.9;;;;;;;;;
2021/01/15 00:10:16;;;;;;;9.37;5.57;;;3.8;99.9;;;;;;;;;
2021/01/15 00:10:32;;;;;;;7.87;5.43;;;3.8;99.9;;;;;;;;;
2021/01/15 00:10:42;;;;;;;7.87;5.43;;;3.8;99.9;;;;;;;;;
2021/01/15 00:10:52;;;;;;;7.87;5.43;;;3.8;99.9;;;;;;;;;
2021/01/15 00:11:02;;;;;;;7.87;5.43;;;3.8;99.9;;;;;;;;;
2021/01/15 00:11:18;;;;;;;7.87;5.43;;;3.8;99.9;;;;;;;;;
2021/01/15 00:11:29;;;;;;;8.5;6.43;;;3.8;99.9;;;;;;;;;
2021/01/15 00:11:43;;;;;;;8.5;6.43;;;3.8;99.9;;;;;;;;;
2021/01/15 00:11:54;;;;;;;8.5;6.43;;;3.8;99.9;;;;;;;;;
2021/01/15 00:12:01;;;;;;;8.5;6.43;;;3.8;99.9;;;;;;;;;
2021/01/15 00:12:09;;;;;;;8.5;6.43;;;3.8;99.9;;;;;;;;;
2021/01/15 00:12:14;;;;;;;8.5;6.43;;;3.8;99.9;;;;;;;;;
2021/01/15 00:12:29;;;;;;;5.6;4.93;;;3.8;99.9;;;;;;;;;
2021/01/15 00:12:45;;;;;;;5.6;4.93;;;3.8;99.9;;;;;;;;;
2021/01/15 00:12:55;;;;;;;5.6;4.93;;;3.8;99.9;;;;;;;;;
2021/01/15 00:13:01;;;;;;;5.6;4.93;;;3.8;99.9;;;;;;;;;
2021/01/15 00:13:05;;;;;;;5.6;4.93;;;3.8;99.9;;;;;;;;;
2021/01/15 00:13:15;;;;;;;5.6;4.93;;;3.8;99.9;;;;;;;;;
2021/01/15 00:13:32;;;;;;;6.2;5.07;;;3.7;99.9;;;;;;;;;
2021/01/15 00:13:41;;;;;;;6.2;5.07;;;3.7;99.9;;;;;;;;;
2021/01/15 00:13:56;;;;;;;6.2;5.07;;;3.7;99.9;;;;;;;;;
2021/01/15 00:14:02;;;;;;;6.2;5.07;;;3.7;99.9;;;;;;;;;
2021/01/15 00:14:07;;;;;;;6.2;5.07;;;3.7;99.9;;;;;;;;;
2021/01/15 00:14:17;;;;;;;6.2;5.07;;;3.7;99.9;;;;;;;;;
2021/01/15 00:14:27;;;;;;;7.63;4.7;;;3.8;99.9;;;;;;;;;
2021/01/15 00:14:43;;;;;;;7.63;4.7;;;3.8;99.9;;;;;;;;;
2021/01/15 00:14:58;;;;;;;7.63;4.7;;;3.8;99.9;;;;;;;;;
2021/01/15 00:15:02;;;;;;;7.63;4.7;;;3.8;99.9;;;;;;;;;
2021/01/15 00:15:08;;;;;;;7.63;4.7;;;3.8;99.9;;;;;;;;;
2021/01/15 00:15:13;;;;;;;7.63;4.7;;;3.8;99.9;;;;;;;;;
2021/01/15 00:15:29;;;;;;;4.93;4.4;;;3.7;99.9;;;;;;;;;
2021/01/15 00:15:44;;;;;;;4.93;4.4;;;3.7;99.9;;;;;;;;;
2021/01/15 00:15:54;;;;;;;4.93;4.4;;;3.7;99.9;;;;;;;;;
2021/01/15 00:16:02;;;;;;;4.93;4.4;;;3.7;99.9;;;;;;;;;
2021/01/15 00:16:10;;;;;;;4.93;4.4;;;3.7;99.9;;;;;;;;;
2021/01/15 00:16:15;;;;;;;4.93;4.4;;;3.7;99.9;;;;;;;;;
2021/01/15 00:16:30;;;;;;;5.9;5.1;;;3.7;99.9;;;;;;;;;
2021/01/15 00:16:40;;;;;;;5.9;5.1;;;3.7;99.9;;;;;;;;;
2021/01/15 00:16:56;;;;;;;5.9;5.1;;;3.7;99.9;;;;;;;;;
2021/01/15 00:17:01;;;;;;;5.9;5.1;;;3.7;99.9;;;;;;;;;
2021/01/15 00:17:11;;;;;;;5.9;5.1;;;3.7;99.9;;;;;;;;;
2021/01/15 00:17:16;;;;;;;5.9;5.1;;;3.7;99.9;;;;;;;;;
2021/01/15 00:17:26;;;;;;;5.9;5.1;;;3.7;99.9;;;;;;;;;
2021/01/15 00:17:42;;;;;;;6.63;5.47;;;3.6;99.9;;;;;;;;;
2021/01/15 00:17:57;;;;;;;6.63;5.47;;;3.6;99.9;;;;;;;;;
2021/01/15 00:18:02;;;;;;;6.63;5.47;;;3.6;99.9;;;;;;;;;
2021/01/15 00:18:07;;;;;;;6.63;5.47;;;3.6;99.9;;;;;;;;;
2021/01/15 00:18:12;;;;;;;6.63;5.47;;;3.6;99.9;;;;;;;;;
2021/01/15 00:18:33;;;;;;;7.17;5.13;;;3.6;99.9;;;;;;;;;
2021/01/15 00:18:43;;;;;;;7.17;5.13;;;3.6;99.9;;;;;;;;;
2021/01/15 00:18:53;;;;;;;7.17;5.13;;;3.6;99.9;;;;;;;;;
2021/01/15 00:19:01;;;;;;;7.17;5.13;;;3.6;99.9;;;;;;;;;
2021/01/15 00:19:09;;;;;;;7.17;5.13;;;3.6;99.9;;;;;;;;;
2021/01/15 00:19:14;;;;;;;7.17;5.13;;;3.6;99.9;;;;;;;;;
2021/01/15 00:19:29;;;;;;;5.83;4.93;;;3.6;99.9;;;;;;;;;
2021/01/15 00:19:45;;;;;;;5.83;4.93;;;3.6;99.9;;;;;;;;;
2021/01/15 00:19:55;;;;;;;5.83;4.93;;;3.6;99.9;;;;;;;;;
2021/01/15 00:20:02;;;;;;;5.83;4.93;;;3.6;99.9;;;;;;;;;
2021/01/15 00:20:10;;;;;;;5.83;4.93;;;3.6;99.9;;;;;;;;;
2021/01/15 00:20:15;;;;;;;5.83;4.93;;;3.6;99.9;;;;;;;;;
2021/01/15 00:20:26;;;;;;;5.83;4.93;;;3.6;99.9;;;;;;;;;
2021/01/15 00:20:46;;;;;;;5.97;4.93;;;3.7;99.9;;;;;;;;;
2021/01/15 00:20:57;;;;;;;5.97;4.93;;;3.7;99.9;;;;;;;;;
2021/01/15 00:21:02;;;;;;;5.97;4.93;;;3.7;99.9;;;;;;;;;
2021/01/15 00:21:07;;;;;;;5.97;4.93;;;3.7;99.9;;;;;;;;;
2021/01/15 00:21:17;;;;;;;5.97;4.93;;;3.7;99.9;;;;;;;;;
2021/01/15 00:21:27;;;;;;;5.97;4.93;;;3.7;99.9;;;;;;;;;
2021/01/15 00:21:48;;;;;;;6.93;5.07;;;3.7;99.9;;;;;;;;;
2021/01/15 00:21:58;;;;;;;6.93;5.07;;;3.7;99.9;;;;;;;;;
2021/01/15 00:22:01;;;;;;;6.93;5.07;;;3.7;99.9;;;;;;;;;
2021/01/15 00:22:08;;;;;;;6.93;5.07;;;3.7;99.9;;;;;;;;;
2021/01/15 00:22:13;;;;;;;6.93;5.07;;;3.7;99.9;;;;;;;;;
2021/01/15 00:22:28;;;;;;;6.93;5.07;;;3.7;99.9;;;;;;;;;
2021/01/15 00:22:39;;;;;;;5.73;4.4;;;3.7;99.9;;;;;;;;;
2021/01/15 00:22:59;;;;;;;5.73;4.4;;;3.7;99.9;;;;;;;;;
2021/01/15 00:23:02;;;;;;;5.73;4.4;;;3.7;99.9;;;;;;;;;
2021/01/15 00:23:09;;;;;;;5.73;4.4;;;3.7;99.9;;;;;;;;;
2021/01/15 00:23:16;;;;;;;5.73;4.4;;;3.7;99.9;;;;;;;;;
2021/01/15 00:23:31;;;;;;;7.07;5.23;;;3.7;99.9;;;;;;;;;
2021/01/15 00:23:40;;;;;;;7.07;5.23;;;3.7;99.9;;;;;;;;;
2021/01/15 00:24:01;;;;;;;7.07;5.23;;;3.7;99.9;;;;;;;;;
2021/01/15 00:24:02;;;;;;;7.07;5.23;;;3.7;99.9;;;;;;;;;
2021/01/15 00:24:11;;;;;;;7.07;5.23;;;3.7;99.9;;;;;;;;;
2021/01/15 00:24:16;;;;;;;7.07;5.23;;;3.7;99.9;;;;;;;;;
2021/01/15 00:24:26;;;;;;;7.07;5.23;;;3.7;99.9;;;;;;;;;
2021/01/15 00:24:42;;;;;;;7.37;5.5;;;3.7;99.9;;;;;;;;;
2021/01/15 00:24:52;;;;;;;7.37;5.5;;;3.7;99.9;;;;;;;;;
2021/01/15 00:25:02;;;;;;;7.37;5.5;;;3.7;99.9;;;;;;;;;
2021/01/15 00:25:12;;;;;;;7.37;5.5;;;3.7;99.9;;;;;;;;;
2021/01/15 00:25:12;;;;;;;7.37;5.5;;;3.7;99.9;;;;;;;;;
2021/01/15 00:25:28;;;;;;;7.37;5.5;;;3.7;99.9;;;;;;;;;
2021/01/15 00:25:43;;;;;;;7.47;5.5;;;3.7;99.9;;;;;;;;;
2021/01/15 00:25:53;;;;;;;7.47;5.5;;;3.7;99.9;;;;;;;;;
2021/01/15 00:26:02;;;;;;;7.47;5.5;;;3.7;99.9;;;;;;;;;
2021/01/15 00:26:14;;;;;;;7.47;5.5;;;3.7;99.9;;;;;;;;;
2021/01/15 00:26:14;;;;;;;7.47;5.5;;;3.7;99.9;;;;;;;;;
2021/01/15 00:26:29;;;;;;;7.47;5.5;;;3.7;99.9;;;;;;;;;
2021/01/15 00:26:40;;;;;;;4.93;4.43;;;3.7;99.9;;;;;;;;;
2021/01/15 00:26:55;;;;;;;4.93;4.43;;;3.7;99.9;;;;;;;;;
2021/01/15 00:27:02;;;;;;;4.93;4.43;;;3.7;99.9;;;;;;;;;
2021/01/15 00:27:05;;;;;;;4.93;4.43;;;3.7;99.9;;;;;;;;;
2021/01/15 00:27:15;;;;;;;4.93;4.43;;;3.7;99.9;;;;;;;;;
2021/01/15 00:27:25;;;;;;;4.93;4.43;;;3.7;99.9;;;;;;;;;
2021/01/15 00:27:41;;;;;;;6.37;5.23;;;3.8;99.9;;;;;;;;;
2021/01/15 00:27:56;;;;;;;6.37;5.23;;;3.8;99.9;;;;;;;;;
2021/01/15 00:28:02;;;;;;;6.37;5.23;;;3.8;99.9;;;;;;;;;
2021/01/15 00:28:06;;;;;;;6.37;5.23;;;3.8;99.9;;;;;;;;;
2021/01/15 00:28:17;;;;;;;6.37;5.23;;;3.8;99.9;;;;;;;;;
2021/01/15 00:28:27;;;;;;;6.37;5.23;;;3.8;99.9;;;;;;;;;
2021/01/15 00:28:42;;;;;;;6.23;5.2;;;3.8;99.9;;;;;;;;;
2021/01/15 00:28:53;;;;;;;6.23;5.2;;;3.8;99.9;;;;;;;;;
2021/01/15 00:29:01;;;;;;;6.23;5.2;;;3.8;99.9;;;;;;;;;
2021/01/15 00:29:08;;;;;;;6.23;5.2;;;3.8;99.9;;;;;;;;;
2021/01/15 00:29:13;;;;;;;6.23;5.2;;;3.8;99.9;;;;;;;;;
2021/01/15 00:29:28;;;;;;;6.23;5.2;;;3.8;99.9;;;;;;;;;
2021/01/15 00:29:38;;;;;;;5.73;4.73;;;3.8;99.9;;;;;;;;;
2021/01/15 00:29:54;;;;;;;5.73;4.73;;;3.8;99.9;;;;;;;;;
2021/01/15 00:30:02;;;;;;;5.73;4.73;;;3.8;99.9;;;;;;;;;
2021/01/15 00:30:09;;;;;;;5.73;4.73;;;3.8;99.9;;;;;;;;;
2021/01/15 00:30:14;;;;;;;5.73;4.73;;;3.8;99.9;;;;;;;;;
2021/01/15 00:30:30;;;;;;;5.73;4.73;;;3.8;99.9;;;;;;;;;
2021/01/15 00:30:40;;;;;;;5.63;5;;;3.8;99.9;;;;;;;;;
2021/01/15 00:30:55;;;;;;;5.63;5;;;3.8;99.9;;;;;;;;;
2021/01/15 00:31:02;;;;;;;5.63;5;;;3.8;99.9;;;;;;;;;
2021/01/15 00:31:05;;;;;;;5.63;5;;;3.8;99.9;;;;;;;;;
2021/01/15 00:31:16;;;;;;;5.63;5;;;3.8;99.9;;;;;;;;;
2021/01/15 00:31:26;;;;;;;5.63;5;;;3.8;99.9;;;;;;;;;
2021/01/15 00:31:41;;;;;;;6.4;5.1;;;3.8;99.9;;;;;;;;;
2021/01/15 00:31:52;;;;;;;6.4;5.1;;;3.8;99.9;;;;;;;;;
2021/01/15 00:32:01;;;;;;;6.4;5.1;;;3.8;99.9;;;;;;;;;
2021/01/15 00:32:07;;;;;;;6.4;5.1;;;3.8;99.9;;;;;;;;;
2021/01/15 00:32:17;;;;;;;6.4;5.1;;;3.8;99.9;;;;;;;;;
2021/01/15 00:32:27;;;;;;;6.4;5.1;;;3.8;99.9;;;;;;;;;
2021/01/15 00:32:43;;;;;;;6.73;5.2;;;3.7;99.9;;;;;;;;;
2021/01/15 00:32:53;;;;;;;6.73;5.2;;;3.7;99.9;;;;;;;;;
2021/01/15 00:33:02;;;;;;;6.73;5.2;;;3.7;99.9;;;;;;;;;
2021/01/15 00:33:08;;;;;;;6.73;5.2;;;3.7;99.9;;;;;;;;;
2021/01/15 00:33:13;;;;;;;6.73;5.2;;;3.7;99.9;;;;;;;;;
2021/01/15 00:33:29;;;;;;;6.73;5.2;;;3.7;99.9;;;;;;;;;
2021/01/15 00:33:39;;;;;;;8.47;5.47;;;3.8;99.9;;;;;;;;;
2021/01/15 00:33:54;;;;;;;8.47;5.47;;;3.8;99.9;;;;;;;;;
2021/01/15 00:34:02;;;;;;;8.47;5.47;;;3.8;99.9;;;;;;;;;
2021/01/15 00:34:05;;;;;;;8.47;5.47;;;3.8;99.9;;;;;;;;;
2021/01/15 00:34:15;;;;;;;8.47;5.47;;;3.8;99.9;;;;;;;;;
2021/01/15 00:34:30;;;;;;;8.47;5.47;;;3.8;99.9;;;;;;;;;
2021/01/15 00:34:41;;;;;;;6.83;5.43;;;3.7;99.9;;;;;;;;;
2021/01/15 00:34:56;;;;;;;6.83;5.43;;;3.7;99.9;;;;;;;;;
2021/01/15 00:35:02;;;;;;;6.83;5.43;;;3.7;99.9;;;;;;;;;
2021/01/15 00:35:06;;;;;;;6.83;5.43;;;3.7;99.9;;;;;;;;;
2021/01/15 00:35:16;;;;;;;6.83;5.43;;;3.7;99.9;;;;;;;;;
2021/01/15 00:35:27;;;;;;;6.83;5.43;;;3.7;99.9;;;;;;;;;
2021/01/15 00:35:42;;;;;;;9.13;5.5;;;3.8;99.9;;;;;;;;;
2021/01/15 00:35:52;;;;;;;9.13;5.5;;;3.8;99.9;;;;;;;;;
2021/01/15 00:36:02;;;;;;;9.13;5.5;;;3.8;99.9;;;;;;;;;
2021/01/15 00:36:08;;;;;;;9.13;5.5;;;3.8;99.9;;;;;;;;;
2021/01/15 00:36:13;;;;;;;9.13;5.5;;;3.8;99.9;;;;;;;;;
2021/01/15 00:36:28;;;;;;;9.13;5.5;;;3.8;99.9;;;;;;;;;
2021/01/15 00:36:43;;;;;;;5.6;5;;;3.8;99.9;;;;;;;;;
2021/01/15 00:36:54;;;;;;;5.6;5;;;3.8;99.9;;;;;;;;;
2021/01/15 00:37:01;;;;;;;5.6;5;;;3.8;99.9;;;;;;;;;
2021/01/15 00:37:09;;;;;;;5.6;5;;;3.8;99.9;;;;;;;;;
2021/01/15 00:37:14;;;;;;;5.6;5;;;3.8;99.9;;;;;;;;;
2021/01/15 00:37:30;;;;;;;5.6;5;;;3.8;99.9;;;;;;;;;
2021/01/15 00:37:40;;;;;;;7.6;5.27;;;3.8;99.9;;;;;;;;;
2021/01/15 00:37:55;;;;;;;7.6;5.27;;;3.8;99.9;;;;;;;;;
2021/01/15 00:38:02;;;;;;;7.6;5.27;;;3.8;99.9;;;;;;;;;
2021/01/15 00:38:05;;;;;;;7.6;5.27;;;3.8;99.9;;;;;;;;;
2021/01/15 00:38:16;;;;;;;7.6;5.27;;;3.8;99.9;;;;;;;;;
2021/01/15 00:38:26;;;;;;;7.6;5.27;;;3.8;99.9;;;;;;;;;
2021/01/15 00:38:41;;;;;;;7.87;5.67;;;3.7;99.9;;;;;;;;;
2021/01/15 00:38:57;;;;;;;7.87;5.67;;;3.7;99.9;;;;;;;;;
2021/01/15 00:39:01;;;;;;;7.87;5.67;;;3.7;99.9;;;;;;;;;
2021/01/15 00:39:08;;;;;;;7.87;5.67;;;3.7;99.9;;;;;;;;;
2021/01/15 00:39:14;;;;;;;7.87;5.67;;;3.7;99.9;;;;;;;;;
2021/01/15 00:39:28;;;;;;;7.87;5.67;;;3.7;99.9;;;;;;;;;
2021/01/15 00:39:43;;;;;;;8;6;;;3.8;99.9;;;;;;;;;
2021/01/15 00:39:53;;;;;;;8;6;;;3.8;99.9;;;;;;;;;
2021/01/15 00:40:02;;;;;;;8;6;;;3.8;99.9;;;;;;;;;
2021/01/15 00:40:08;;;;;;;8;6;;;3.8;99.9;;;;;;;;;
2021/01/15 00:40:13;;;;;;;8;6;;;3.8;99.9;;;;;;;;;
2021/01/15 00:40:29;;;;;;;8;6;;;3.8;99.9;;;;;;;;;
2021/01/15 00:40:39;;;;;;;8;5.8;;;3.6;99.9;;;;;;;;;
2021/01/15 00:40:54;;;;;;;8;5.8;;;3.6;99.9;;;;;;;;;
2021/01/15 00:41:02;;;;;;;8;5.8;;;3.6;99.9;;;;;;;;;
2021/01/15 00:41:10;;;;;;;8;5.8;;;3.6;99.9;;;;;;;;;
2021/01/15 00:41:15;;;;;;;8;5.8;;;3.6;99.9;;;;;;;;;
2021/01/15 00:41:25;;;;;;;8;5.8;;;3.6;99.9;;;;;;;;;
2021/01/15 00:41:40;;;;;;;10.3;6.8;;;3.6;99.9;;;;;;;;;
2021/01/15 00:41:56;;;;;;;10.3;6.8;;;3.6;99.9;;;;;;;;;
2021/01/15 00:42:01;;;;;;;10.3;6.8;;;3.6;99.9;;;;;;;;;
2021/01/15 00:42:06;;;;;;;10.3;6.8;;;3.6;99.9;;;;;;;;;
2021/01/15 00:42:16;;;;;;;10.3;6.8;;;3.6;99.9;;;;;;;;;
2021/01/15 00:42:26;;;;;;;10.3;6.8;;;3.6;99.9;;;;;;;;;
2021/01/15 00:42:42;;;;;;;9.37;6.4;;;3.7;99.9;;;;;;;;;
2021/01/15 00:42:52;;;;;;;9.37;6.4;;;3.7;99.9;;;;;;;;;
2021/01/15 00:43:02;;;;;;;9.37;6.4;;;3.7;99.9;;;;;;;;;
2021/01/15 00:43:07;;;;;;;9.37;6.4;;;3.7;99.9;;;;;;;;;
2021/01/15 00:43:18;;;;;;;9.37;6.4;;;3.7;99.9;;;;;;;;;
2021/01/15 00:43:28;;;;;;;9.37;6.4;;;3.7;99.9;;;;;;;;;
2021/01/15 00:43:38;;;;;;;7.83;6.4;;;3.7;99.9;;;;;;;;;
2021/01/15 00:43:54;;;;;;;7.83;6.4;;;3.7;99.9;;;;;;;;;
2021/01/15 00:44:01;;;;;;;7.83;6.4;;;3.7;99.9;;;;;;;;;
2021/01/15 00:44:09;;;;;;;7.83;6.4;;;3.7;99.9;;;;;;;;;
2021/01/15 00:44:16;;;;;;;7.83;6.4;;;3.7;99.9;;;;;;;;;
2021/01/15 00:44:29;;;;;;;7.83;6.4;;;3.7;99.9;;;;;;;;;
2021/01/15 00:44:45;;;;;;;6.27;5.3;;;3.7;99.9;;;;;;;;;
2021/01/15 00:45:00;;;;;;;6.27;5.3;;;3.7;99.9;;;;;;;;;
2021/01/15 00:45:02;;;;;;;6.27;5.3;;;3.7;99.9;;;;;;;;;
2021/01/15 00:45:05;;;;;;;6.27;5.3;;;3.7;99.9;;;;;;;;;
2021/01/15 00:45:16;;;;;;;6.27;5.3;;;3.7;99.9;;;;;;;;;
2021/01/15 00:45:31;;;;;;;6.27;5.3;;;3.7;99.9;;;;;;;;;
2021/01/15 00:45:41;;;;;;;6.73;6.03;;;3.7;99.9;;;;;;;;;
2021/01/15 00:45:51;;;;;;;6.73;6.03;;;3.7;99.9;;;;;;;;;
2021/01/15 00:46:07;;;;;;;6.73;6.03;;;3.7;99.9;;;;;;;;;
2021/01/15 00:46:07;;;;;;;6.73;6.03;;;3.7;99.9;;;;;;;;;
2021/01/15 00:46:12;;;;;;;6.73;6.03;;;3.7;99.9;;;;;;;;;
2021/01/15 00:46:31;;;;;;;6.73;6.03;;;3.7;99.9;;;;;;;;;
2021/01/15 00:46:45;;;;;;;7.07;5.6;;;3.7;99.9;;;;;;;;;
2021/01/15 00:46:58;;;;;;;7.07;5.6;;;3.7;99.9;;;;;;;;;
2021/01/15 00:47:02;;;;;;;7.07;5.6;;;3.7;99.9;;;;;;;;;
2021/01/15 00:47:13;;;;;;;7.07;5.6;;;3.7;99.9;;;;;;;;;
2021/01/15 00:47:13;;;;;;;7.07;5.6;;;3.7;99.9;;;;;;;;;
2021/01/15 00:47:29;;;;;;;7.07;5.6;;;3.7;99.9;;;;;;;;;
2021/01/15 00:47:44;;;;;;;7.43;5.8;;;3.7;99.9;;;;;;;;;
2021/01/15 00:47:54;;;;;;;7.43;5.8;;;3.7;99.9;;;;;;;;;
2021/01/15 00:48:02;;;;;;;7.43;5.8;;;3.7;99.9;;;;;;;;;
2021/01/15 00:48:04;;;;;;;7.43;5.8;;;3.7;99.9;;;;;;;;;
2021/01/15 00:48:25;;;;;;;7.43;5.8;;;3.7;99.9;;;;;;;;;
2021/01/15 00:48:25;;;;;;;7.43;5.8;;;3.7;99.9;;;;;;;;;
2021/01/15 00:48:45;;;;;;;6.67;5.17;;;3.8;99.9;;;;;;;;;
2021/01/15 00:48:56;;;;;;;6.67;5.17;;;3.8;99.9;;;;;;;;;
2021/01/15 00:49:02;;;;;;;6.67;5.17;;;3.8;99.9;;;;;;;;;
2021/01/15 00:49:11;;;;;;;6.67;5.17;;;3.8;99.9;;;;;;;;;
2021/01/15 00:49:16;;;;;;;6.67;5.17;;;3.8;99.9;;;;;;;;;
2021/01/15 00:49:26;;;;;;;6.67;5.17;;;3.8;99.9;;;;;;;;;
2021/01/15 00:49:42;;;;;;;6.2;5.3;;;3.7;99.9;;;;;;;;;
2021/01/15 00:49:57;;;;;;;6.2;5.3;;;3.7;99.9;;;;;;;;;
2021/01/15 00:50:03;;;;;;;6.2;5.3;;;3.7;99.9;;;;;;;;;
2021/01/15 00:50:07;;;;;;;6.2;5.3;;;3.7;99.9;;;;;;;;;
2021/01/15 00:50:12;;;;;;;6.2;5.3;;;3.7;99.9;;;;;;;;;
2021/01/15 00:50:38;;;;;;;7;4.7;;;3.8;99.9;;;;;;;;;
2021/01/15 00:50:38;;;;;;;7;4.7;;;3.8;99.9;;;;;;;;;
2021/01/15 00:50:59;;;;;;;7;4.7;;;3.8;99.9;;;;;;;;;
2021/01/15 00:51:02;;;;;;;7;4.7;;;3.8;99.9;;;;;;;;;
2021/01/15 00:51:09;;;;;;;7;4.7;;;3.8;99.9;;;;;;;;;
2021/01/15 00:51:14;;;;;;;7;4.7;;;3.8;99.9;;;;;;;;;
2021/01/15 00:51:30;;;;;;;7;4.7;;;3.8;99.9;;;;;;;;;
2021/01/15 00:51:39;;;;;;;6.33;5.57;;;3.7;99.9;;;;;;;;;
2021/01/15 00:51:55;;;;;;;6.33;5.57;;;3.7;99.9;;;;;;;;;
2021/01/15 00:52:02;;;;;;;6.33;5.57;;;3.7;99.9;;;;;;;;;
2021/01/15 00:52:10;;;;;;;6.33;5.57;;;3.7;99.9;;;;;;;;;
2021/01/15 00:52:15;;;;;;;6.33;5.57;;;3.7;99.9;;;;;;;;;
2021/01/15 00:52:26;;;;;;;6.33;5.57;;;3.7;99.9;;;;;;;;;
2021/01/15 00:52:51;;;;;;;8.9;4.97;;;3.8;99.9;;;;;;;;;
2021/01/15 00:52:51;;;;;;;8.9;4.97;;;3.8;99.9;;;;;;;;;
2021/01/15 00:53:02;;;;;;;8.9;4.97;;;3.8;99.9;;;;;;;;;
2021/01/15 00:53:17;;;;;;;8.9;4.97;;;3.8;99.9;;;;;;;;;
2021/01/15 00:53:17;;;;;;;8.9;4.97;;;3.8;99.9;;;;;;;;;
2021/01/15 00:53:27;;;;;;;8.9;4.97;;;3.8;99.9;;;;;;;;;
2021/01/15 00:53:42;;;;;;;8.07;4.93;;;3.8;99.9;;;;;;;;;
2021/01/15 00:53:58;;;;;;;8.07;4.93;;;3.8;99.9;;;;;;;;;
2021/01/15 00:54:01;;;;;;;8.07;4.93;;;3.8;99.9;;;;;;;;;
2021/01/15 00:54:08;;;;;;;8.07;4.93;;;3.8;99.9;;;;;;;;;
2021/01/15 00:54:13;;;;;;;8.07;4.93;;;3.8;99.9;;;;;;;;;
2021/01/15 00:54:28;;;;;;;8.07;4.93;;;3.8;99.9;;;;;;;;;
2021/01/15 00:54:39;;;;;;;7.53;5;;;3.8;99.9;;;;;;;;;
2021/01/15 00:55:02;;;;;;;7.53;5;;;3.8;99.9;;;;;;;;;
2021/01/15 00:55:05;;;;;;;7.53;5;;;3.8;99.9;;;;;;;;;
2021/01/15 00:55:05;;;;;;;7.53;5;;;3.8;99.9;;;;;;;;;
2021/01/15 00:55:14;;;;;;;7.53;5;;;3.8;99.9;;;;;;;;;
2021/01/15 00:55:30;;;;;;;7.53;5;;;3.8;99.9;;;;;;;;;
2021/01/15 00:55:40;;;;;;;6.33;4.93;;;3.9;99.9;;;;;;;;;
2021/01/15 00:55:55;;;;;;;6.33;4.93;;;3.9;99.9;;;;;;;;;
2021/01/15 00:56:01;;;;;;;6.33;4.93;;;3.9;99.9;;;;;;;;;
2021/01/15 00:56:11;;;;;;;6.33;4.93;;;3.9;99.9;;;;;;;;;
2021/01/15 00:56:16;;;;;;;6.33;4.93;;;3.9;99.9;;;;;;;;;
2021/01/15 00:56:26;;;;;;;6.33;4.93;;;3.9;99.9;;;;;;;;;
2021/01/15 00:56:42;;;;;;;8.33;5.23;;;3.9;99.9;;;;;;;;;
2021/01/15 00:56:52;;;;;;;8.33;5.23;;;3.9;99.9;;;;;;;;;
2021/01/15 00:57:02;;;;;;;8.33;5.23;;;3.9;99.9;;;;;;;;;
2021/01/15 00:57:17;;;;;;;8.33;5.23;;;3.9;99.9;;;;;;;;;
2021/01/15 00:57:17;;;;;;;8.33;5.23;;;3.9;99.9;;;;;;;;;
2021/01/15 00:57:28;;;;;;;8.33;5.23;;;3.9;99.9;;;;;;;;;
2021/01/15 00:57:43;;;;;;;5.53;4.9;;;3.8;99.9;;;;;;;;;
2021/01/15 00:57:53;;;;;;;5.53;4.9;;;3.8;99.9;;;;;;;;;
2021/01/15 00:58:02;;;;;;;5.53;4.9;;;3.8;99.9;;;;;;;;;
2021/01/15 00:58:09;;;;;;;5.53;4.9;;;3.8;99.9;;;;;;;;;
2021/01/15 00:58:14;;;;;;;5.53;4.9;;;3.8;99.9;;;;;;;;;
2021/01/15 00:58:29;;;;;;;5.53;4.9;;;3.8;99.9;;;;;;;;;
2021/01/15 00:58:39;;;;;;;5.53;4.9;;;3.8;99.9;;;;;;;;;
2021/01/15 00:58:55;;;;;;;7.33;4.97;;;3.8;99.9;;;;;;;;;
2021/01/15 00:59:02;;;;;;;7.33;4.97;;;3.8;99.9;;;;;;;;;
2021/01/15 00:59:10;;;;;;;7.33;4.97;;;3.8;99.9;;;;;;;;;
2021/01/15 00:59:15;;;;;;;7.33;4.97;;;3.8;99.9;;;;;;;;;
2021/01/15 00:59:30;;;;;;;7.33;4.97;;;3.8;99.9;;;;;;;;;
2021/01/15 00:59:41;;;;;;;5.87;4.67;;;3.9;99.9;;;;;;;;;
2021/01/15 00:59:56;;;;;;;5.87;4.67;;;3.9;99.9;;;;;;;;;
2021/01/15 01:00:02;;;;;;;5.87;4.67;;;3.9;99.9;;;;;;;;;
2021/01/15 01:00:06;;;;;;;5.87;4.67;;;3.9;99.9;;;;;;;;;
2021/01/15 01:00:17;;;;;;;5.87;4.67;;;3.9;99.9;;;;;;;;;
2021/01/15 01:00:27;;;;;;;5.87;4.67;;;3.9;99.9;;;;;;;;;
2021/01/15 01:00:42;;;;;;;5.3;4.8;;;3.9;99.9;;;;;;;;;
2021/01/15 01:00:52;;;;;;;5.3;4.8;;;3.9;99.9;;;;;;;;;
2021/01/15 01:01:02;;;;;;;5.3;4.8;;;3.9;99.9;;;;;;;;;
2021/01/15 01:01:08;;;;;;;5.3;4.8;;;3.9;99.9;;;;;;;;;
2021/01/15 01:01:13;;;;;;;5.3;4.8;;;3.9;99.9;;;;;;;;;
2021/01/15 01:01:28;;;;;;;5.3;4.8;;;3.9;99.9;;;;;;;;;
2021/01/15 01:01:44;;;;;;;5.73;4.83;;;3.9;99.9;;;;;;;;;
2021/01/15 01:01:54;;;;;;;5.73;4.83;;;3.9;99.9;;;;;;;;;
2021/01/15 01:02:02;;;;;;;5.73;4.83;;;3.9;99.9;;;;;;;;;
2021/01/15 01:02:09;;;;;;;5.73;4.83;;;3.9;99.9;;;;;;;;;
2021/01/15 01:02:14;;;;;;;5.73;4.83;;;3.9;99.9;;;;;;;;;
2021/01/15 01:02:30;;;;;;;5.73;4.83;;;3.9;99.9;;;;;;;;;
2021/01/15 01:02:40;;;;;;;5.73;4.83;;;3.9;99.9;;;;;;;;;
2021/01/15 01:02:55;;;;;;;7;5.63;;;3.9;99.9;;;;;;;;;
2021/01/15 01:03:05;;;;;;;7;5.63;;;3.9;99.9;;;;;;;;;
2021/01/15 01:03:06;;;;;;;7;5.63;;;3.9;99.9;;;;;;;;;
2021/01/15 01:03:16;;;;;;;7;5.63;;;3.9;99.9;;;;;;;;;
2021/01/15 01:03:26;;;;;;;7;5.63;;;3.9;99.9;;;;;;;;;
2021/01/15 01:03:41;;;;;;;6.7;4.87;;;3.9;99.9;;;;;;;;;
2021/01/15 01:03:57;;;;;;;6.7;4.87;;;3.9;99.9;;;;;;;;;
2021/01/15 01:04:01;;;;;;;6.7;4.87;;;3.9;99.9;;;;;;;;;
2021/01/15 01:04:07;;;;;;;6.7;4.87;;;3.9;99.9;;;;;;;;;
2021/01/15 01:04:12;;;;;;;6.7;4.87;;;3.9;99.9;;;;;;;;;
2021/01/15 01:04:28;;;;;;;6.7;4.87;;;3.9;99.9;;;;;;;;;
2021/01/15 01:04:43;;;;;;;7.77;4.83;;;3.9;99.9;;;;;;;;;
2021/01/15 01:04:54;;;;;;;7.77;4.83;;;3.9;99.9;;;;;;;;;
2021/01/15 01:05:02;;;;;;;7.77;4.83;;;3.9;99.9;;;;;;;;;
2021/01/15 01:05:11;;;;;;;7.77;4.83;;;3.9;99.9;;;;;;;;;
2021/01/15 01:05:21;;;;;;;7.77;4.83;;;3.9;99.9;;;;;;;;;
2021/01/15 01:05:29;;;;;;;7.77;4.83;;;3.9;99.9;;;;;;;;;
2021/01/15 01:05:39;;;;;;;7.77;4.83;;;3.9;99.9;;;;;;;;;
2021/01/15 01:05:54;;;;;;;5.87;5.13;;;3.8;99.9;;;;;;;;;
2021/01/15 01:06:02;;;;;;;5.87;5.13;;;3.8;99.9;;;;;;;;;
2021/01/15 01:06:10;;;;;;;5.87;5.13;;;3.8;99.9;;;;;;;;;
2021/01/15 01:06:15;;;;;;;5.87;5.13;;;3.8;99.9;;;;;;;;;
2021/01/15 01:06:25;;;;;;;5.87;5.13;;;3.8;99.9;;;;;;;;;
2021/01/15 01:06:41;;;;;;;5.87;5.13;;;3.8;99.9;;;;;;;;;
2021/01/15 01:06:57;;;;;;;5.73;5.13;;;4;99.9;;;;;;;;;
2021/01/15 01:07:02;;;;;;;5.73;5.13;;;4;99.9;;;;;;;;;
2021/01/15 01:07:06;;;;;;;5.73;5.13;;;4;99.9;;;;;;;;;
2021/01/15 01:07:16;;;;;;;5.73;5.13;;;4;99.9;;;;;;;;;
2021/01/15 01:07:32;;;;;;;5.73;5.13;;;4;99.9;;;;;;;;;
2021/01/15 01:07:43;;;;;;;5.73;5.13;;;4;99.9;;;;;;;;;
2021/01/15 01:07:54;;;;;;;6.57;5.23;;;4;99.9;;;;;;;;;
2021/01/15 01:08:02;;;;;;;6.57;5.23;;;4;99.9;;;;;;;;;
2021/01/15 01:08:08;;;;;;;6.57;5.23;;;4;99.9;;;;;;;;;
2021/01/15 01:08:23;;;;;;;6.57;5.23;;;4;99.9;;;;;;;;;
2021/01/15 01:08:32;;;;;;;6.57;5.23;;;4;99.9;;;;;;;;;
2021/01/15 01:08:38;;;;;;;6.57;5.23;;;4;99.9;;;;;;;;;
2021/01/15 01:08:54;;;;;;;7.2;5.9;;;3.9;99.9;;;;;;;;;
2021/01/15 01:09:02;;;;;;;7.2;5.9;;;3.9;99.9;;;;;;;;;
2021/01/15 01:09:09;;;;;;;7.2;5.9;;;3.9;99.9;;;;;;;;;
2021/01/15 01:09:14;;;;;;;7.2;5.9;;;3.9;99.9;;;;;;;;;
2021/01/15 01:09:29;;;;;;;7.2;5.9;;;3.9;99.9;;;;;;;;;
2021/01/15 01:09:45;;;;;;;5.97;4.63;;;3.8;99.9;;;;;;;;;
2021/01/15 01:09:57;;;;;;;5.97;4.63;;;3.8;99.9;;;;;;;;;
2021/01/15 01:10:04;;;;;;;5.97;4.63;;;3.8;99.9;;;;;;;;;
2021/01/15 01:10:06;;;;;;;5.97;4.63;;;3.8;99.9;;;;;;;;;
2021/01/15 01:10:16;;;;;;;5.97;4.63;;;3.8;99.9;;;;;;;;;
2021/01/15 01:10:37;;;;;;;5.97;4.63;;;3.8;99.9;;;;;;;;;
2021/01/15 01:10:46;;;;;;;6.6;5;;;3.9;99.9;;;;;;;;;
2021/01/15 01:10:51;;;;;;;6.6;5;;;3.9;99.9;;;;;;;;;
2021/01/15 01:11:01;;;;;;;6.6;5;;;3.9;99.9;;;;;;;;;
2021/01/15 01:11:07;;;;;;;6.6;5;;;3.9;99.9;;;;;;;;;
2021/01/15 01:11:18;;;;;;;6.6;5;;;3.9;99.9;;;;;;;;;
2021/01/15 01:11:27;;;;;;;6.6;5;;;3.9;99.9;;;;;;;;;
2021/01/15 01:11:43;;;;;;;6.6;5;;;3.9;99.9;;;;;;;;;
2021/01/15 01:11:58;;;;;;;5.57;4.7;;;3.9;99.9;;;;;;;;;
2021/01/15 01:12:02;;;;;;;5.57;4.7;;;3.9;99.9;;;;;;;;;
2021/01/15 01:12:08;;;;;;;5.57;4.7;;;3.9;99.9;;;;;;;;;
2021/01/15 01:12:18;;;;;;;5.57;4.7;;;3.9;99.9;;;;;;;;;
2021/01/15 01:12:29;;;;;;;5.57;4.7;;;3.9;99.9;;;;;;;;;
2021/01/15 01:12:49;;;;;;;6.37;4.87;;;3.9;99.9;;;;;;;;;
2021/01/15 01:12:59;;;;;;;6.37;4.87;;;3.9;99.9;;;;;;;;;
2021/01/15 01:13:02;;;;;;;6.37;4.87;;;3.9;99.9;;;;;;;;;
2021/01/15 01:13:05;;;;;;;6.37;4.87;;;3.9;99.9;;;;;;;;;
2021/01/15 01:13:15;;;;;;;6.37;4.87;;;3.9;99.9;;;;;;;;;
2021/01/15 01:13:30;;;;;;;6.37;4.87;;;3.9;99.9;;;;;;;;;
2021/01/15 01:13:40;;;;;;;6.37;4.87;;;3.9;99.9;;;;;;;;;
2021/01/15 01:13:56;;;;;;;5.67;4.97;;;3.9;99.9;;;;;;;;;
2021/01/15 01:14:03;;;;;;;5.67;4.97;;;3.9;99.9;;;;;;;;;
2021/01/15 01:14:11;;;;;;;5.67;4.97;;;3.9;99.9;;;;;;;;;
2021/01/15 01:14:19;;;;;;;5.67;4.97;;;3.9;99.9;;;;;;;;;
2021/01/15 01:14:32;;;;;;;5.67;4.97;;;3.9;99.9;;;;;;;;;
2021/01/15 01:14:42;;;;;;;5.67;4.97;;;3.9;99.9;;;;;;;;;
2021/01/15 01:15:02;;;;;;;9.83;6.13;;;4;99.9;;;;;;;;;
2021/01/15 01:15:03;;;;;;;9.83;6.13;;;4;99.9;;;;;;;;;
2021/01/15 01:15:13;;;;;;;9.83;6.13;;;4;99.9;;;;;;;;;
2021/01/15 01:15:13;;;;;;;9.83;6.13;;;4;99.9;;;;;;;;;
2021/01/15 01:15:28;;;;;;;9.83;6.13;;;4;99.9;;;;;;;;;
2021/01/15 01:15:43;;;;;;;9.83;6.13;;;4;99.9;;;;;;;;;
2021/01/15 01:15:54;;;;;;;9.27;6.8;;;4;99.9;;;;;;;;;
2021/01/15 01:16:02;;;;;;;9.27;6.8;;;4;99.9;;;;;;;;;
2021/01/15 01:16:09;;;;;;;9.27;6.8;;;4;99.9;;;;;;;;;
2021/01/15 01:16:14;;;;;;;9.27;6.8;;;4;99.9;;;;;;;;;
2021/01/15 01:16:29;;;;;;;9.27;6.8;;;4;99.9;;;;;;;;;
2021/01/15 01:16:45;;;;;;;9.27;6.8;;;4;99.9;;;;;;;;;
2021/01/15 01:16:55;;;;;;;8.1;5.7;;;4;99.9;;;;;;;;;
2021/01/15 01:17:02;;;;;;;8.1;5.7;;;4;99.9;;;;;;;;;
2021/01/15 01:17:16;;;;;;;8.1;5.7;;;4;99.9;;;;;;;;;
2021/01/15 01:17:16;;;;;;;8.1;5.7;;;4;99.9;;;;;;;;;
2021/01/15 01:17:26;;;;;;;8.1;5.7;;;4;99.9;;;;;;;;;